Time;durP1;ratioP1;P1;durP2;ratioP2;P2;SDS_P1;SDS_P2;PMS_P1;PMS_P2;Temp;Humidity;BMP_temperature;BMP_pressure;BME280_temperature;BME280_humidity;BME280_pressure;Samples;Min_cycle;Max_cycle;Signal;HPM_P1;HPM_P2
2021/10/20 00:02:26;;;;;;;2.88;2.67;;;;;;;11.26;100.00;100102.63;6313504;28;20230;-73
2021/10/20 00:05:30;;;;;;;2.80;2.72;;;;;;;11.23;100.00;100100.38;6312430;28;20222;-73
2021/10/20 00:08:35;;;;;;;3.05;2.80;;;;;;;11.24;100.00;100102.06;6312273;28;20190;-73
2021/10/20 00:11:39;;;;;;;2.95;2.85;;;;;;;11.27;100.00;100090.63;6313221;28;20184;-72
2021/10/20 00:14:43;;;;;;;3.40;3.10;;;;;;;11.39;100.00;100081.59;6313122;28;20202;-73
2021/10/20 00:17:49;;;;;;;3.30;3.10;;;;;;;11.41;100.00;100057.59;6313019;28;20234;-73
2021/10/20 00:20:53;;;;;;;3.33;3.15;;;;;;;11.37;100.00;100048.22;6312674;28;20230;-73
2021/10/20 00:23:59;;;;;;;3.58;3.47;;;;;;;11.36;100.00;100043.84;6312669;28;20191;-73
2021/10/20 00:27:04;;;;;;;3.78;3.55;;;;;;;11.48;100.00;100025.53;6311554;28;20195;-73
2021/10/20 00:30:11;;;;;;;3.83;3.72;;;;;;;11.42;100.00;100021.03;6295433;28;20184;-73
2021/10/20 00:33:16;;;;;;;3.80;3.60;;;;;;;11.44;100.00;100018.88;6312720;28;20184;-73
2021/10/20 00:36:20;;;;;;;4.15;3.88;;;;;;;11.30;100.00;100013.69;6311308;28;20538;-72
2021/10/20 00:39:24;;;;;;;3.58;3.38;;;;;;;11.25;100.00;99999.94;6312631;28;20183;-72
2021/10/20 00:42:28;;;;;;;3.78;3.67;;;;;;;11.30;100.00;99991.84;6311688;28;20229;-72
2021/10/20 00:45:32;;;;;;;3.80;3.70;;;;;;;11.36;100.00;99967.38;6312583;28;20246;-72
2021/10/20 00:48:38;;;;;;;4.65;4.35;;;;;;;11.38;100.00;99960.59;6311225;28;20502;-72
2021/10/20 00:51:43;;;;;;;4.20;4.00;;;;;;;11.33;100.00;99952.28;6311138;28;20377;-72
2021/10/20 00:54:49;;;;;;;4.57;3.92;;;;;;;11.37;100.00;99950.75;6311921;28;20191;-72
2021/10/20 00:57:53;;;;;;;4.50;4.28;;;;;;;11.40;100.00;99941.25;6312074;28;20211;-73
2021/10/20 01:00:57;;;;;;;4.43;4.22;;;;;;;11.41;100.00;99931.97;6312770;28;20230;-72
2021/10/20 01:04:04;;;;;;;4.10;3.90;;;;;;;11.36;100.00;99929.13;6311476;28;20235;-72
2021/10/20 01:07:08;;;;;;;4.38;4.10;;;;;;;11.45;100.00;99927.69;6315304;28;20363;-72
2021/10/20 01:10:13;;;;;;;4.40;4.10;;;;;;;11.37;100.00;99914.41;6315933;28;20183;-72
2021/10/20 01:13:17;;;;;;;4.22;4.03;;;;;;;11.46;100.00;99907.47;6315947;28;20518;-72
2021/10/20 01:16:22;;;;;;;4.10;3.80;;;;;;;11.33;100.00;99897.69;6315850;28;20211;-72
2021/10/20 01:19:28;;;;;;;3.63;3.53;;;;;;;11.31;100.00;99884.28;6316146;28;20191;-72
2021/10/20 01:22:34;;;;;;;3.60;3.50;;;;;;;11.44;100.00;99868.66;6317124;28;20254;-72
2021/10/20 01:25:38;;;;;;;3.75;3.45;;;;;;;11.49;100.00;99857.81;6315567;28;20483;-73
2021/10/20 01:28:43;;;;;;;3.10;3.00;;;;;;;11.44;100.00;99852.28;6316415;28;20187;-72
2021/10/20 01:31:47;;;;;;;2.97;2.88;;;;;;;11.46;100.00;99841.94;6315442;28;20184;-73
2021/10/20 01:34:51;;;;;;;2.70;2.70;;;;;;;11.31;100.00;99823.38;6315445;28;20261;-72
2021/10/20 01:37:59;;;;;;;2.90;2.80;;;;;;;11.40;100.00;99808.22;6316289;28;20326;-72
2021/10/20 01:41:04;;;;;;;2.55;2.45;;;;;;;11.56;100.00;99793.75;6315593;28;20198;-72
2021/10/20 01:44:09;;;;;;;2.50;2.42;;;;;;;11.51;100.00;99776.47;6315123;28;20479;-72
2021/10/20 01:47:13;;;;;;;2.25;2.15;;;;;;;11.53;100.00;99771.59;6315073;28;20377;-72
2021/10/20 01:50:17;;;;;;;2.20;2.10;;;;;;;11.54;100.00;99756.84;6315070;28;20357;-73
2021/10/20 01:53:23;;;;;;;1.80;1.80;;;;;;;11.58;100.00;99755.28;6315154;28;20184;-73
2021/10/20 01:56:28;;;;;;;1.70;1.70;;;;;;;11.65;100.00;99742.28;6314441;28;20206;-73
2021/10/20 01:59:32;;;;;;;1.60;1.58;;;;;;;11.58;100.00;99736.16;6315308;28;20215;-72
2021/10/20 02:02:36;;;;;;;2.17;1.55;;;;;;;11.64;100.00;99735.16;6315419;28;20552;-72
2021/10/20 02:05:40;;;;;;;1.73;1.73;;;;;;;11.55;100.00;99736.66;6315558;28;20184;-72
2021/10/20 02:08:46;;;;;;;1.80;1.70;;;;;;;11.51;100.00;99730.03;6315655;28;20187;-72
2021/10/20 02:11:50;;;;;;;1.73;1.70;;;;;;;11.61;100.00;99724.72;6315941;28;20215;-72
2021/10/20 02:14:54;;;;;;;1.70;1.70;;;;;;;11.50;100.00;99692.88;6314489;28;20458;-72
2021/10/20 02:17:58;;;;;;;1.70;1.70;;;;;;;11.55;100.00;99679.31;6314209;28;20247;-72
2021/10/20 02:21:03;;;;;;;1.98;1.88;;;;;;;11.44;100.00;99658.38;6315384;28;20215;-73
2021/10/20 02:24:09;;;;;;;1.90;1.90;;;;;;;11.46;100.00;99657.03;6314379;28;20243;-72
2021/10/20 02:27:13;;;;;;;2.05;1.95;;;;;;;11.54;100.00;99636.66;6315573;28;20194;-72
2021/10/20 02:30:17;;;;;;;2.45;2.30;;;;;;;11.64;100.00;99634.06;6314182;28;20183;-72
2021/10/20 02:33:21;;;;;;;3.13;2.63;;;;;;;11.74;100.00;99628.78;6314148;28;20496;-72
2021/10/20 02:36:26;;;;;;;3.65;3.45;;;;;;;11.73;100.00;99629.88;6314060;28;20491;-73
2021/10/20 02:39:31;;;;;;;2.85;2.75;;;;;;;11.72;100.00;99628.19;6315378;28;20239;-73
2021/10/20 02:42:36;;;;;;;2.60;2.50;;;;;;;11.69;100.00;99620.50;6314298;28;20216;-72
2021/10/20 02:45:40;;;;;;;3.55;3.35;;;;;;;11.74;100.00;99606.91;6313964;28;20487;-72
2021/10/20 02:48:44;;;;;;;3.03;2.92;;;;;;;11.71;100.00;99599.25;6315391;28;20210;-72
2021/10/20 02:51:48;;;;;;;3.35;3.15;;;;;;;11.67;100.00;99581.66;6314923;28;20215;-72
2021/10/20 02:54:55;;;;;;;3.50;3.40;;;;;;;11.70;100.00;99575.72;6314975;28;20188;-72
2021/10/20 02:57:59;;;;;;;4.97;3.55;;;;;;;11.62;100.00;99579.69;6313399;28;20429;-71
2021/10/20 03:01:03;;;;;;;4.03;3.40;;;;;;;11.74;100.00;99557.72;6313859;28;20371;-73
2021/10/20 03:04:10;;;;;;;4.00;3.70;;;;;;;11.86;100.00;99550.25;6313552;28;20227;-72
2021/10/20 03:07:14;;;;;;;3.58;3.38;;;;;;;11.84;100.00;99538.72;6314659;28;20184;-72
2021/10/20 03:10:19;;;;;;;3.65;3.45;;;;;;;11.80;100.00;99526.66;6314273;28;20230;-72
2021/10/20 03:13:23;;;;;;;3.30;3.08;;;;;;;11.82;100.00;99521.75;6313123;28;20410;-73
2021/10/20 03:16:28;;;;;;;3.38;3.22;;;;;;;11.82;100.00;99510.84;6313037;28;20443;-72
2021/10/20 03:19:32;;;;;;;3.60;3.35;;;;;;;11.79;100.00;99509.44;6312907;28;20218;-73
2021/10/20 03:22:38;;;;;;;3.35;3.25;;;;;;;11.82;100.00;99486.25;6313874;28;20223;-72
2021/10/20 03:25:43;;;;;;;3.55;3.35;;;;;;;11.85;100.00;99485.72;6313940;28;20294;-72
2021/10/20 03:28:48;;;;;;;3.90;3.42;;;;;;;11.79;100.00;99470.34;6312622;28;20187;-73
2021/10/20 03:31:52;;;;;;;3.90;3.70;;;;;;;11.81;100.00;99451.81;6313688;28;20229;-73
2021/10/20 03:34:56;;;;;;;3.17;3.08;;;;;;;11.81;100.00;99452.63;6312722;28;20463;-72
2021/10/20 03:38:00;;;;;;;3.22;3.08;;;;;;;11.85;100.00;99452.94;6313550;28;20207;-72
2021/10/20 03:41:06;;;;;;;2.85;2.85;;;;;;;11.73;100.00;99455.00;6313308;28;20184;-72
2021/10/20 03:44:13;;;;;;;3.42;3.33;;;;;;;11.65;100.00;99447.25;6312466;28;20199;-72
2021/10/20 03:47:19;;;;;;;2.80;2.70;;;;;;;11.58;100.00;99430.25;6313640;28;20262;-72
2021/10/20 03:50:23;;;;;;;3.10;3.00;;;;;;;11.60;100.00;99430.81;6312317;28;20431;-73
2021/10/20 03:53:27;;;;;;;2.75;2.47;;;;;;;11.58;100.00;99419.31;6312260;28;20413;-72
2021/10/20 03:56:33;;;;;;;3.15;2.70;;;;;;;11.70;100.00;99409.06;6312152;28;20480;-72
2021/10/20 03:59:38;;;;;;;2.53;2.42;;;;;;;11.74;100.00;99397.38;6313339;28;20207;-72
2021/10/20 04:02:44;;;;;;;2.10;1.92;;;;;;;11.60;100.00;99395.28;6313002;28;20235;-72
2021/10/20 04:05:48;;;;;;;2.42;2.30;;;;;;;11.64;100.00;99377.28;6312706;28;20253;-71
2021/10/20 04:08:52;;;;;;;3.80;2.08;;;;;;;11.76;100.00;99356.16;6312240;28;20251;-72
2021/10/20 04:11:58;;;;;;;2.40;2.20;;;;;;;11.72;100.00;99357.72;6313184;28;20183;-72
2021/10/20 04:15:03;;;;;;;2.20;2.10;;;;;;;11.74;100.00;99341.91;6312096;28;20184;-72
2021/10/20 04:18:12;;;;;;;1.90;1.90;;;;;;;11.75;100.00;99318.97;6311654;28;20514;-72
2021/10/20 04:21:16;;;;;;;1.88;1.88;;;;;;;11.81;100.00;99302.34;6313062;28;20202;-72
2021/10/20 04:24:20;;;;;;;1.67;1.67;;;;;;;11.69;100.00;99306.34;6311685;28;20531;-72
2021/10/20 04:27:26;;;;;;;1.70;1.60;;;;;;;11.74;100.00;99299.00;6312512;28;20183;-72
2021/10/20 04:30:30;;;;;;;1.40;1.40;;;;;;;11.72;100.00;99297.63;6312876;28;20192;-72
2021/10/20 04:33:34;;;;;;;1.98;1.98;;;;;;;11.73;100.00;99280.16;6312502;28;20190;-72
2021/10/20 04:36:38;;;;;;;1.60;1.60;;;;;;;11.72;100.00;99256.66;6312680;28;20215;-72
2021/10/20 04:39:44;;;;;;;1.67;1.58;;;;;;;11.81;100.00;99266.03;6311793;28;20211;-73
2021/10/20 04:42:50;;;;;;;1.52;1.52;;;;;;;11.87;100.00;99259.47;6311361;28;20222;-72
2021/10/20 04:45:54;;;;;;;1.60;1.60;;;;;;;11.87;100.00;99265.78;6311274;28;20529;-72
2021/10/20 04:48:58;;;;;;;1.67;1.67;;;;;;;11.91;100.00;99288.75;6311289;28;20550;-72
2021/10/20 04:52:03;;;;;;;2.13;1.90;;;;;;;11.89;100.00;99273.69;6312166;28;20183;-72
2021/10/20 04:55:08;;;;;;;1.60;1.60;;;;;;;11.92;100.00;99273.19;6311151;28;20383;-72
2021/10/20 04:58:14;;;;;;;1.80;1.80;;;;;;;11.85;100.00;99248.84;6311657;28;20183;-72
2021/10/20 05:01:19;;;;;;;2.08;1.90;;;;;;;11.87;100.00;99243.09;6312002;28;20199;-72
2021/10/20 05:04:23;;;;;;;1.90;1.90;;;;;;;11.93;100.00;99225.66;6311523;28;20242;-74
2021/10/20 05:07:27;;;;;;;2.10;2.10;;;;;;;11.94;100.00;99228.09;6312337;28;20191;-72
2021/10/20 05:10:31;;;;;;;1.90;1.90;;;;;;;11.92;100.00;99224.00;6311078;28;20442;-73
2021/10/20 05:13:37;;;;;;;2.25;2.15;;;;;;;11.96;100.00;99192.31;6312472;28;20184;-73
2021/10/20 05:16:41;;;;;;;2.35;2.35;;;;;;;12.02;100.00;99185.78;6312237;28;20190;-73
2021/10/20 05:19:45;;;;;;;2.10;2.10;;;;;;;12.02;100.00;99174.84;6310905;28;20274;-73
2021/10/20 05:22:49;;;;;;;1.95;1.95;;;;;;;11.98;100.00;99168.28;6310867;28;20372;-73
2021/10/20 05:25:53;;;;;;;2.30;2.20;;;;;;;12.08;100.00;99146.47;6310953;28;20445;-73
2021/10/20 05:28:59;;;;;;;2.65;2.30;;;;;;;12.14;100.00;99150.03;6310843;28;20535;-73
2021/10/20 05:32:04;;;;;;;2.33;2.22;;;;;;;12.10;100.00;99154.38;6311761;28;20184;-73
2021/10/20 05:35:15;;;;;;;2.22;2.22;;;;;;;12.09;100.00;99133.63;6311646;28;20187;-73
2021/10/20 05:38:20;;;;;;;2.20;2.20;;;;;;;12.16;100.00;99115.88;6310744;28;20184;-73
2021/10/20 05:41:24;;;;;;;2.08;2.08;;;;;;;12.04;100.00;99119.94;6311258;28;20211;-73
2021/10/20 05:44:29;;;;;;;4.20;2.30;;;;;;;12.15;100.00;99130.63;6311634;28;20191;-73
2021/10/20 05:47:34;;;;;;;2.35;2.25;;;;;;;12.25;100.00;99138.84;6310947;28;20219;-73
2021/10/20 05:50:37;;;;;;;2.50;2.50;;;;;;;12.22;100.00;99124.91;6310415;28;20483;-73
2021/10/20 05:53:42;;;;;;;4.03;2.58;;;;;;;12.21;100.00;99135.03;6314335;28;20191;-73
2021/10/20 05:56:46;;;;;;;2.53;2.53;;;;;;;12.23;100.00;99124.63;6316342;28;20191;-73
2021/10/20 05:59:51;;;;;;;2.78;2.67;;;;;;;12.23;100.00;99119.16;6316100;28;20217;-74
2021/10/20 06:02:55;;;;;;;2.85;2.75;;;;;;;12.28;100.00;99108.25;6315786;28;20235;-74
2021/10/20 06:06:00;;;;;;;2.92;2.72;;;;;;;12.30;100.00;99094.31;6315816;28;20261;-73
2021/10/20 06:09:04;;;;;;;2.78;2.78;;;;;;;12.31;100.00;99096.78;6315646;28;20219;-73
2021/10/20 06:12:12;;;;;;;3.17;3.08;;;;;;;12.30;100.00;99103.31;6315839;28;20191;-74
2021/10/20 06:15:22;;;;;;;3.03;2.97;;;;;;;12.34;100.00;99095.41;6315695;28;20183;-73
2021/10/20 06:18:39;;;;;;;3.33;3.10;;;;;;;12.43;100.00;99089.13;6314479;28;20480;-73
2021/10/20 06:21:44;;;;;;;3.10;3.00;;;;;;;12.39;100.00;99101.72;6314226;28;20214;-73
2021/10/20 06:24:48;;;;;;;3.13;2.90;;;;;;;12.42;100.00;99092.97;6315339;28;20227;-73
2021/10/20 06:27:53;;;;;;;3.53;3.35;;;;;;;12.35;100.00;99086.94;6315622;28;20191;-73
2021/10/20 06:30:58;;;;;;;3.25;3.20;;;;;;;12.45;100.00;99070.53;6314155;28;20386;-72
2021/10/20 06:34:02;;;;;;;3.50;3.33;;;;;;;12.49;100.00;99071.66;6315008;28;20222;-73
2021/10/20 06:37:07;;;;;;;3.40;3.20;;;;;;;12.51;100.00;99064.00;6315317;28;20183;-74
2021/10/20 06:40:12;;;;;;;2.83;2.83;;;;;;;12.56;100.00;99077.66;6313773;28;20326;-72
2021/10/20 06:43:16;;;;;;;3.50;3.40;;;;;;;12.61;100.00;99056.91;6315296;28;20190;-73
2021/10/20 06:46:21;;;;;;;3.15;3.15;;;;;;;12.58;100.00;99042.66;6315269;28;20251;-72
2021/10/20 06:49:27;;;;;;;4.47;3.00;;;;;;;12.62;100.00;99031.16;6315026;28;20324;-72
2021/10/20 06:52:31;;;;;;;3.13;3.00;;;;;;;12.63;100.00;99033.66;6315010;28;20250;-73
2021/10/20 06:55:35;;;;;;;2.70;2.60;;;;;;;12.75;100.00;99041.56;6314413;28;20226;-72
2021/10/20 06:58:39;;;;;;;2.90;2.80;;;;;;;12.76;100.00;99044.00;6313404;28;20467;-72
2021/10/20 07:01:45;;;;;;;2.35;2.35;;;;;;;12.77;100.00;99029.25;6312939;28;20352;-73
2021/10/20 07:04:49;;;;;;;5.38;2.90;;;;;;;12.75;100.00;99014.19;6314201;28;20191;-73
2021/10/20 07:07:53;;;;;;;2.42;2.38;;;;;;;12.79;100.00;99012.56;6313158;28;20226;-72
2021/10/20 07:10:57;;;;;;;2.85;2.75;;;;;;;12.85;100.00;99005.97;6314414;28;20267;-72
2021/10/20 07:14:01;;;;;;;2.92;2.65;;;;;;;12.95;100.00;98982.16;6314058;28;20254;-72
2021/10/20 07:17:09;;;;;;;2.60;2.50;;;;;;;13.01;100.00;98980.22;6312833;28;20479;-72
2021/10/20 07:20:13;;;;;;;2.60;2.50;;;;;;;12.95;100.00;98971.22;6314153;28;20211;-73
2021/10/20 07:23:17;;;;;;;2.70;2.60;;;;;;;13.01;100.00;98955.59;6314191;28;20188;-73
2021/10/20 07:26:22;;;;;;;2.33;2.22;;;;;;;12.98;100.00;98950.66;6314093;28;20260;-73
2021/10/20 07:29:26;;;;;;;2.47;2.33;;;;;;;13.00;100.00;98951.22;6312790;28;20490;-73
2021/10/20 07:32:32;;;;;;;2.97;2.78;;;;;;;13.09;100.00;98957.78;6313703;28;20250;-73
2021/10/20 07:35:36;;;;;;;2.88;2.58;;;;;;;13.08;100.00;98956.16;6313431;28;20183;-73
2021/10/20 07:38:40;;;;;;;2.17;2.08;;;;;;;13.08;100.00;98926.03;6313490;28;20252;-73
2021/10/20 07:41:44;;;;;;;1.95;1.95;;;;;;;13.09;100.00;98927.69;6312349;28;20553;-73
2021/10/20 07:44:49;;;;;;;2.33;2.25;;;;;;;13.21;100.00;98936.41;6313106;28;20251;-73
2021/10/20 07:47:54;;;;;;;3.22;2.40;;;;;;;13.23;100.00;98945.13;6313580;28;20191;-72
2021/10/20 07:51:00;;;;;;;2.22;2.22;;;;;;;13.14;100.00;98952.31;6313112;28;20195;-72
2021/10/20 07:54:05;;;;;;;2.47;2.35;;;;;;;13.22;100.00;98953.66;6313448;28;20347;-72
2021/10/20 07:57:10;;;;;;;2.00;2.00;;;;;;;13.20;100.00;98940.22;6311983;28;20238;-73
2021/10/20 08:00:16;;;;;;;2.22;2.20;;;;;;;13.28;100.00;98939.66;6313196;28;20263;-73
2021/10/20 08:03:22;;;;;;;2.13;2.05;;;;;;;13.27;100.00;98954.44;6312689;28;20276;-73
2021/10/20 08:06:26;;;;;;;3.10;2.03;;;;;;;13.31;100.00;98958.25;6311780;28;20442;-73
2021/10/20 08:09:30;;;;;;;2.15;2.03;;;;;;;13.40;100.00;98973.03;6311576;28;20447;-72
2021/10/20 08:12:34;;;;;;;2.28;2.17;;;;;;;13.47;100.00;98961.75;6311924;28;20254;-72
2021/10/20 08:15:39;;;;;;;2.00;2.00;;;;;;;13.48;100.00;98969.69;6312209;28;20215;-73
2021/10/20 08:18:45;;;;;;;2.10;2.10;;;;;;;13.53;100.00;98950.47;6312971;28;20198;-72
2021/10/20 08:21:49;;;;;;;1.90;1.90;;;;;;;13.49;100.00;98954.91;6312337;28;20211;-72
2021/10/20 08:24:55;;;;;;;2.15;2.00;;;;;;;13.57;100.00;98945.28;6312652;28;20183;-73
2021/10/20 08:27:59;;;;;;;1.90;1.80;;;;;;;13.58;100.00;98923.09;6311806;28;20222;-72
2021/10/20 08:31:03;;;;;;;1.85;1.85;;;;;;;13.58;100.00;98919.53;6312768;28;20251;-73
2021/10/20 08:34:10;;;;;;;2.15;1.80;;;;;;;13.63;100.00;98912.09;6311553;28;20238;-72
2021/10/20 08:37:14;;;;;;;1.77;1.77;;;;;;;13.65;100.00;98903.59;6312368;28;20183;-73
2021/10/20 08:40:18;;;;;;;1.80;1.80;;;;;;;13.70;100.00;98885.19;6311365;28;20521;-72
2021/10/20 08:43:23;;;;;;;3.63;1.60;;;;;;;13.76;100.00;98884.03;6312283;28;20306;-72
2021/10/20 08:46:27;;;;;;;1.90;1.77;;;;;;;13.80;100.00;98874.16;6311596;28;20260;-72
2021/10/20 08:49:34;;;;;;;4.75;1.80;;;;;;;13.77;100.00;98869.25;6312336;28;20321;-73
2021/10/20 08:52:38;;;;;;;2.72;1.77;;;;;;;13.81;100.00;98853.84;6312076;28;20188;-72
2021/10/20 08:55:43;;;;;;;1.88;1.50;;;;;;;13.88;100.00;98863.69;6310969;28;20183;-73
2021/10/20 08:58:47;;;;;;;1.60;1.60;;;;;;;13.85;100.00;98858.75;6312337;28;20183;-73
2021/10/20 09:01:51;;;;;;;3.90;1.50;;;;;;;13.85;100.00;98858.75;6311748;28;20291;-73
2021/10/20 09:04:57;;;;;;;1.45;1.35;;;;;;;13.91;100.00;98857.63;6310900;28;20198;-72
2021/10/20 09:08:01;;;;;;;1.30;1.30;;;;;;;13.99;100.00;98859.75;6311156;28;20237;-73
2021/10/20 09:11:20;;;;;;;3.80;1.60;;;;;;;14.01;100.00;98846.59;6311199;28;20187;-73
2021/10/20 09:14:24;;;;;;;1.50;1.40;;;;;;;13.99;100.00;98854.28;6311353;28;20251;-73
2021/10/20 09:17:43;;;;;;;1.27;1.27;;;;;;;14.08;100.00;98836.09;6311752;28;20191;-73
2021/10/20 09:20:49;;;;;;;1.40;1.40;;;;;;;14.09;100.00;98818.56;6312184;28;20244;-73
2021/10/20 09:23:54;;;;;;;4.45;1.70;;;;;;;14.15;100.00;98828.38;6310915;28;20503;-73
2021/10/20 09:26:59;;;;;;;1.30;1.20;;;;;;;14.21;100.00;98816.22;6314077;28;20357;-73
2021/10/20 09:30:10;;;;;;;1.23;1.10;;;;;;;14.27;100.00;98818.66;6316680;28;20191;-73
2021/10/20 09:33:15;;;;;;;1.10;1.10;;;;;;;14.36;100.00;98810.63;6316536;28;20203;-73
2021/10/20 09:36:22;;;;;;;1.58;1.50;;;;;;;14.37;100.00;98815.00;6316900;28;20183;-74
2021/10/20 09:39:26;;;;;;;1.30;1.30;;;;;;;14.43;100.00;98804.81;6316854;28;20228;-73
2021/10/20 09:42:33;;;;;;;1.30;1.30;;;;;;;14.47;100.00;98806.66;6316159;28;20215;-73
2021/10/20 09:45:39;;;;;;;2.90;1.17;;;;;;;14.54;100.00;98800.81;6316436;28;20187;-73
2021/10/20 09:48:44;;;;;;;1.58;1.55;;;;;;;14.55;100.00;98802.47;6316421;28;20184;-73
2021/10/20 09:51:50;;;;;;;1.38;1.38;;;;;;;14.57;100.00;98806.56;6316041;28;20187;-73
2021/10/20 09:54:57;;;;;;;1.27;1.25;;;;;;;14.60;100.00;98805.97;6316357;28;20183;-73
2021/10/20 09:58:02;;;;;;;2.55;1.30;;;;;;;14.61;100.00;98810.34;6315834;28;20215;-72
2021/10/20 10:01:06;;;;;;;1.75;1.27;;;;;;;14.65;100.00;98803.19;6314973;28;20548;-73
2021/10/20 10:04:12;;;;;;;1.13;1.13;;;;;;;14.67;100.00;98783.66;6315047;28;20250;-73
2021/10/20 10:07:18;;;;;;;3.28;1.25;;;;;;;14.73;100.00;98783.31;6315952;28;20191;-73
2021/10/20 10:10:23;;;;;;;1.25;1.25;;;;;;;14.70;100.00;98775.66;6314723;28;20458;-73
2021/10/20 10:13:31;;;;;;;1.15;1.15;;;;;;;14.75;100.00;98770.13;6316018;28;20194;-73
2021/10/20 10:16:39;;;;;;;1.85;1.30;;;;;;;14.78;100.00;98775.03;6314566;28;20419;-73
2021/10/20 10:19:44;;;;;;;1.10;1.10;;;;;;;14.82;100.00;98765.06;6315593;28;20205;-73
2021/10/20 10:22:51;;;;;;;1.58;1.40;;;;;;;14.90;100.00;98761.69;6315288;28;20215;-73
2021/10/20 10:26:01;;;;;;;1.73;1.65;;;;;;;14.88;100.00;98747.44;6315821;28;20258;-74
2021/10/20 10:29:07;;;;;;;1.38;1.33;;;;;;;14.87;100.00;98734.81;6314293;28;20251;-74
2021/10/20 10:32:12;;;;;;;1.17;1.17;;;;;;;14.92;100.00;98721.00;6315547;28;20187;-74
2021/10/20 10:35:16;;;;;;;1.25;1.23;;;;;;;14.97;100.00;98720.94;6315313;28;20184;-73
2021/10/20 10:38:35;;;;;;;1.50;1.50;;;;;;;14.92;100.00;98704.53;6313209;28;20183;-74
2021/10/20 10:41:43;;;;;;;1.70;1.60;;;;;;;15.04;100.00;98690.38;6314471;28;20251;-73
2021/10/20 10:44:48;;;;;;;1.90;1.80;;;;;;;14.96;100.00;98683.63;6315212;28;20188;-73
2021/10/20 10:47:57;;;;;;;2.67;1.42;;;;;;;15.01;100.00;98680.81;6314736;28;20191;-73
2021/10/20 10:51:14;;;;;;;1.67;1.67;;;;;;;15.07;100.00;98688.97;6315245;28;20286;-73
2021/10/20 10:54:32;;;;;;;1.40;1.40;;;;;;;15.12;100.00;98686.97;6313577;28;20535;-75
2021/10/20 10:57:39;;;;;;;1.77;1.67;;;;;;;15.14;100.00;98683.91;6313963;28;20247;-74
2021/10/20 11:00:48;;;;;;;1.73;1.60;;;;;;;15.20;100.00;98672.53;6313949;28;20276;-73
2021/10/20 11:04:17;;;;;;;1.52;1.35;;;;;;;15.23;100.00;98666.44;6313443;28;20238;-73
2021/10/20 11:07:25;;;;;;;1.80;1.52;;;;;;;15.26;100.00;98643.06;6314235;28;20183;-73
2021/10/20 11:10:32;;;;;;;1.60;1.38;;;;;;;15.34;100.00;98650.63;6313380;28;20250;-72
2021/10/20 11:13:38;;;;;;;1.70;1.45;;;;;;;15.36;100.00;98631.91;6314343;28;20290;-72
2021/10/20 11:16:47;;;;;;;1.15;1.15;;;;;;;15.40;100.00;98628.25;6313132;28;20191;-72
2021/10/20 11:19:52;;;;;;;1.38;1.38;;;;;;;15.45;100.00;98630.09;6313579;28;20188;-73
2021/10/20 11:22:57;;;;;;;1.00;1.00;;;;;;;15.43;100.00;98626.84;6313151;28;20211;-73
2021/10/20 11:26:03;;;;;;;1.30;1.30;;;;;;;15.50;100.00;98635.53;6312765;28;20412;-72
2021/10/20 11:29:08;;;;;;;1.33;1.33;;;;;;;15.47;100.00;98633.38;6313916;28;20191;-72
2021/10/20 11:32:15;;;;;;;4.88;1.27;;;;;;;15.47;100.00;98623.22;6312594;28;20411;-73
2021/10/20 11:35:21;;;;;;;1.10;1.10;;;;;;;15.48;100.00;98613.03;6313176;28;20277;-72
2021/10/20 11:38:34;;;;;;;0.95;0.95;;;;;;;15.53;100.00;98604.72;6312507;28;20522;-73
2021/10/20 11:41:48;;;;;;;1.10;1.10;;;;;;;15.50;100.00;98610.81;6312645;28;20184;-73
2021/10/20 11:44:53;;;;;;;1.70;1.20;;;;;;;15.51;100.00;98613.25;6312316;28;20283;-74
2021/10/20 11:48:01;;;;;;;1.10;1.05;;;;;;;15.49;100.00;98587.19;6313308;28;20184;-73
2021/10/20 11:51:06;;;;;;;1.17;1.17;;;;;;;15.52;100.00;98597.56;6313177;28;20183;-73
2021/10/20 11:54:10;;;;;;;1.05;1.05;;;;;;;15.56;100.00;98598.63;6312245;28;20383;-73
2021/10/20 11:57:18;;;;;;;4.18;1.05;;;;;;;15.53;100.00;98604.72;6312058;28;20428;-73
2021/10/20 12:00:23;;;;;;;1.10;1.10;;;;;;;15.48;100.00;98596.56;6312320;28;20237;-73
2021/10/20 12:03:34;;;;;;;1.10;1.10;;;;;;;15.51;100.00;98588.50;6311992;28;20526;-73
2021/10/20 12:06:39;;;;;;;0.98;0.98;;;;;;;15.56;100.00;98571.13;6313115;28;20183;-73
2021/10/20 12:09:46;;;;;;;1.00;1.00;;;;;;;15.55;100.00;98575.00;6312671;28;20191;-73
2021/10/20 12:12:51;;;;;;;1.20;1.20;;;;;;;15.59;100.00;98565.00;6311771;28;20184;-73
2021/10/20 12:15:58;;;;;;;1.45;1.00;;;;;;;15.64;100.00;98540.16;6312994;28;20183;-73
2021/10/20 12:19:04;;;;;;;1.00;1.00;;;;;;;15.56;100.00;98543.66;6313036;28;20184;-72
2021/10/20 12:22:12;;;;;;;0.90;0.90;;;;;;;15.64;100.00;98531.94;6312170;28;20187;-72
2021/10/20 12:25:18;;;;;;;1.20;1.20;;;;;;;15.64;100.00;98541.00;6312956;28;20220;-73
2021/10/20 12:28:25;;;;;;;1.00;1.00;;;;;;;15.63;100.00;98530.31;6312863;28;20205;-73
2021/10/20 12:31:29;;;;;;;1.20;1.20;;;;;;;15.68;100.00;98519.22;6311390;28;20521;-72
2021/10/20 12:34:34;;;;;;;1.15;1.15;;;;;;;15.68;100.00;98524.72;6312532;28;20192;-73
2021/10/20 12:37:40;;;;;;;1.05;1.05;;;;;;;15.68;100.00;98530.22;6311259;28;20250;-73
2021/10/20 12:40:46;;;;;;;1.13;1.13;;;;;;;15.62;100.00;98531.41;6310626;28;20237;-73
2021/10/20 12:43:54;;;;;;;1.10;1.10;;;;;;;15.70;100.00;98527.16;6311151;28;20291;-73
2021/10/20 12:47:05;;;;;;;1.13;1.13;;;;;;;15.64;100.00;98520.94;6311214;28;20199;-73
2021/10/20 12:50:15;;;;;;;1.10;1.10;;;;;;;15.67;100.00;98506.59;6311232;28;20358;-73
2021/10/20 12:53:21;;;;;;;1.20;1.20;;;;;;;15.69;100.00;98515.34;6311928;28;20187;-73
2021/10/20 12:56:27;;;;;;;1.20;1.20;;;;;;;15.71;100.00;98510.38;6311191;28;20405;-73
2021/10/20 12:59:36;;;;;;;1.08;1.08;;;;;;;15.76;100.00;98499.25;6312360;28;20219;-73
2021/10/20 13:02:42;;;;;;;0.95;0.95;;;;;;;15.79;100.00;98497.84;6318160;28;20238;-73
2021/10/20 13:05:46;;;;;;;1.13;1.13;;;;;;;15.72;100.00;98503.72;6319339;28;20611;-74
2021/10/20 13:08:51;;;;;;;1.10;1.10;;;;;;;15.75;100.00;98491.31;6320607;28;20187;-71
2021/10/20 13:11:55;;;;;;;1.27;1.27;;;;;;;15.70;100.00;98484.00;6319144;28;20210;-73
2021/10/20 13:15:01;;;;;;;1.58;1.48;;;;;;;15.76;100.00;98482.78;6319991;28;20222;-72
2021/10/20 13:18:06;;;;;;;1.23;1.23;;;;;;;15.73;100.00;98466.88;6320404;28;20187;-72
2021/10/20 13:21:11;;;;;;;1.27;1.17;;;;;;;15.70;100.00;98461.19;6319000;28;20187;-72
2021/10/20 13:24:15;;;;;;;1.95;1.20;;;;;;;15.77;100.00;98461.59;6319133;28;20575;-73
2021/10/20 13:27:19;;;;;;;1.10;1.10;;;;;;;15.69;100.00;98454.88;6320025;28;20215;-72
2021/10/20 13:30:25;;;;;;;1.15;1.15;;;;;;;15.72;100.00;98440.50;6318803;28;20187;-73
2021/10/20 13:33:32;;;;;;;1.20;1.20;;;;;;;15.69;100.00;98435.63;6320040;28;20184;-73
2021/10/20 13:36:36;;;;;;;1.58;1.58;;;;;;;15.56;100.00;98428.25;6319354;28;20191;-73
2021/10/20 13:39:40;;;;;;;1.80;1.80;;;;;;;15.59;100.00;98416.59;6320019;28;20184;-73
2021/10/20 13:42:44;;;;;;;1.60;1.60;;;;;;;15.59;100.00;98422.09;6318876;28;20356;-74
2021/10/20 13:45:50;;;;;;;1.60;1.50;;;;;;;15.68;100.00;98425.78;6318864;28;20518;-73
2021/10/20 13:48:54;;;;;;;1.52;1.52;;;;;;;15.59;100.00;98427.59;6320270;28;20183;-73
2021/10/20 13:51:58;;;;;;;1.63;1.52;;;;;;;15.58;100.00;98426.00;6320170;28;20215;-74
2021/10/20 13:55:03;;;;;;;1.40;1.40;;;;;;;15.51;100.00;98415.41;6318810;28;20473;-73
2021/10/20 13:58:09;;;;;;;1.73;1.63;;;;;;;15.61;100.00;98419.88;6319262;28;20183;-73
2021/10/20 14:01:14;;;;;;;1.50;1.50;;;;;;;15.60;100.00;98408.06;6320049;28;20266;-73
2021/10/20 14:04:20;;;;;;;1.92;1.92;;;;;;;15.56;100.00;98409.00;6319254;28;20231;-73
2021/10/20 14:07:24;;;;;;;1.63;1.63;;;;;;;15.53;100.00;98406.88;6319663;28;20183;-72
2021/10/20 14:10:29;;;;;;;1.67;1.67;;;;;;;15.53;100.00;98395.88;6318551;28;20207;-73
2021/10/20 14:13:33;;;;;;;2.30;1.67;;;;;;;15.48;100.00;98398.72;6315473;28;20206;-73
2021/10/20 14:16:38;;;;;;;1.70;1.70;;;;;;;15.56;100.00;98395.25;6314513;28;20192;-73
2021/10/20 14:19:43;;;;;;;1.50;1.30;;;;;;;15.48;100.00;98395.97;6314603;28;20183;-73
2021/10/20 14:22:47;;;;;;;1.55;1.45;;;;;;;15.49;100.00;98383.84;6315598;28;20184;-73